This is the latest recevied weather packets stored in our database for station/object KCXW. If no packets are shown the sender has not sent any weather packets the latest 10 day(s).
| Time | Temp. | Humidity | Pressure | Rain* | Wind** | Luminosity | Snow |
|---|---|---|---|---|---|---|---|
| 1777680214 | 18.89° C | 39% | 1014.9 hPa | - | - | - | - |
| 1777679611 | 20° C | 40% | 1014.6 hPa | - | - | - | - |
| 1777679012 | 20° C | 40% | 1014.6 hPa | - | - | - | - |
| 1777678410 | 20° C | 40% | 1014.6 hPa | - | - | - | - |
| 1777677812 | 20° C | 40% | 1014.6 hPa | - | - | - | - |
| 1777677213 | 20.56° C | 37% | 1013.9 hPa | - | - | - | - |
| 1777676609 | 20.56° C | 37% | 1013.9 hPa | - | - | - | - |
| 1777676012 | 20.56° C | 40% | 1014.2 hPa | - | - | - | - |
| 1777675408 | 20.56° C | 40% | 1014.2 hPa | - | - | - | - |
| 1777674811 | 20.56° C | 37% | 1014.2 hPa | - | - | - | - |
| 1777674212 | 20.56° C | 37% | 1014.2 hPa | - | - | - | - |
| 1777673611 | 21.67° C | 35% | 1013.9 hPa | - | - | - | - |
| 1777673016 | 21.67° C | 37% | 1013.9 hPa | - | - | - | - |
| 1777672415 | 21.67° C | 37% | 1013.9 hPa | - | - | - | - |
| 1777671815 | 21.67° C | 37% | 1013.9 hPa | - | - | - | - |
| 1777671212 | 21.67° C | 37% | 1013.9 hPa | - | - | - | - |
| 1777670615 | 21.67° C | 37% | 1013.9 hPa | - | - | - | - |
| 1777670009 | 21.67° C | 37% | 1014.2 hPa | - | - | - | - |
| 1777669409 | 21.67° C | 37% | 1014.2 hPa | - | - | - | - |
| 1777668811 | 21.67° C | 37% | 1014.6 hPa | - | - | - | - |
| 1777668216 | 21.67° C | 37% | 1014.6 hPa | - | - | - | - |
| 1777667612 | 20.56° C | 40% | 1015.2 hPa | - | - | - | - |
| 1777667011 | 20.56° C | 40% | 1015.2 hPa | - | - | - | - |
| 1777666409 | 20.56° C | 43% | 1015.6 hPa | - | - | - | - |
| 1777665811 | 20.56° C | 43% | 1015.6 hPa | - | - | - | - |
* Rain since midnight (hover to see other rain measurements)
** Current wind speed in m/s (hover to see current wind gust speed)